sensor_id;sensor_type;location;lat;lon;timestamp;temperature;humidity
46590;DHT22;32313;48.722;9.362;2024-03-08T00:01:01;0.90;99.90
46590;DHT22;32313;48.722;9.362;2024-03-08T00:03:27;0.90;99.90
46590;DHT22;32313;48.722;9.362;2024-03-08T00:05:54;0.90;99.90
46590;DHT22;32313;48.722;9.362;2024-03-08T00:08:20;0.90;99.90
46590;DHT22;32313;48.722;9.362;2024-03-08T00:10:46;0.80;99.90
46590;DHT22;32313;48.722;9.362;2024-03-08T00:13:11;0.70;99.90
46590;DHT22;32313;48.722;9.362;2024-03-08T00:15:37;0.60;99.90
46590;DHT22;32313;48.722;9.362;2024-03-08T00:18:03;0.70;99.90
46590;DHT22;32313;48.722;9.362;2024-03-08T00:20:29;0.70;99.90
46590;DHT22;32313;48.722;9.362;2024-03-08T00:22:54;0.70;99.90
46590;DHT22;32313;48.722;9.362;2024-03-08T00:25:23;0.80;99.90
46590;DHT22;32313;48.722;9.362;2024-03-08T00:27:49;0.70;99.90
46590;DHT22;32313;48.722;9.362;2024-03-08T00:30:15;0.70;99.90
46590;DHT22;32313;48.722;9.362;2024-03-08T00:32:40;0.70;99.90
46590;DHT22;32313;48.722;9.362;2024-03-08T00:35:06;0.80;99.90
46590;DHT22;32313;48.722;9.362;2024-03-08T00:37:32;1.00;99.90
46590;DHT22;32313;48.722;9.362;2024-03-08T00:40:00;1.10;99.90
46590;DHT22;32313;48.722;9.362;2024-03-08T00:42:25;1.20;99.90
46590;DHT22;32313;48.722;9.362;2024-03-08T00:44:51;1.30;99.90
46590;DHT22;32313;48.722;9.362;2024-03-08T00:47:17;1.40;99.90
46590;DHT22;32313;48.722;9.362;2024-03-08T00:49:43;1.30;99.90
46590;DHT22;32313;48.722;9.362;2024-03-08T00:52:09;1.20;99.90
46590;DHT22;32313;48.722;9.362;2024-03-08T00:54:35;1.10;99.90
46590;DHT22;32313;48.722;9.362;2024-03-08T00:57:04;1.00;99.90
46590;DHT22;32313;48.722;9.362;2024-03-08T00:59:38;0.90;99.90
46590;DHT22;32313;48.722;9.362;2024-03-08T01:02:04;0.80;99.90
46590;DHT22;32313;48.722;9.362;2024-03-08T01:04:29;0.70;99.90
46590;DHT22;32313;48.722;9.362;2024-03-08T01:06:59;0.70;99.90
46590;DHT22;32313;48.722;9.362;2024-03-08T01:09:25;0.60;99.90
46590;DHT22;32313;48.722;9.362;2024-03-08T01:11:53;0.60;99.90
46590;DHT22;32313;48.722;9.362;2024-03-08T01:14:23;0.70;99.90
46590;DHT22;32313;48.722;9.362;2024-03-08T01:16:59;0.70;99.90
46590;DHT22;32313;48.722;9.362;2024-03-08T01:19:25;0.70;99.90
46590;DHT22;32313;48.722;9.362;2024-03-08T01:21:51;0.70;99.90
46590;DHT22;32313;48.722;9.362;2024-03-08T01:24:16;0.60;99.90
46590;DHT22;32313;48.722;9.362;2024-03-08T01:26:42;0.50;99.90
46590;DHT22;32313;48.722;9.362;2024-03-08T01:29:08;0.40;99.90
46590;DHT22;32313;48.722;9.362;2024-03-08T01:31:34;0.40;99.90
46590;DHT22;32313;48.722;9.362;2024-03-08T01:34:02;0.40;99.90
46590;DHT22;32313;48.722;9.362;2024-03-08T01:36:27;0.40;99.90
46590;DHT22;32313;48.722;9.362;2024-03-08T01:38:53;0.40;99.90
46590;DHT22;32313;48.722;9.362;2024-03-08T01:41:19;0.30;99.90
46590;DHT22;32313;48.722;9.362;2024-03-08T01:43:45;0.30;99.90
46590;DHT22;32313;48.722;9.362;2024-03-08T01:46:12;0.30;99.90
46590;DHT22;32313;48.722;9.362;2024-03-08T01:48:41;0.40;99.90
46590;DHT22;32313;48.722;9.362;2024-03-08T01:51:07;0.40;99.90
46590;DHT22;32313;48.722;9.362;2024-03-08T01:53:34;0.40;99.90
46590;DHT22;32313;48.722;9.362;2024-03-08T01:56:01;0.30;99.90
46590;DHT22;32313;48.722;9.362;2024-03-08T01:58:29;0.30;99.90
46590;DHT22;32313;48.722;9.362;2024-03-08T02:00:56;0.40;99.90
46590;DHT22;32313;48.722;9.362;2024-03-08T02:03:22;0.40;99.90
46590;DHT22;32313;48.722;9.362;2024-03-08T02:05:49;0.50;99.90
46590;DHT22;32313;48.722;9.362;2024-03-08T02:08:15;0.50;99.90
46590;DHT22;32313;48.722;9.362;2024-03-08T02:10:43;0.50;99.90
46590;DHT22;32313;48.722;9.362;2024-03-08T02:13:09;0.50;99.90
46590;DHT22;32313;48.722;9.362;2024-03-08T02:15:57;0.50;99.90
46590;DHT22;32313;48.722;9.362;2024-03-08T02:18:27;0.60;99.90
46590;DHT22;32313;48.722;9.362;2024-03-08T02:21:01;0.60;99.90
46590;DHT22;32313;48.722;9.362;2024-03-08T02:23:28;0.60;99.90
46590;DHT22;32313;48.722;9.362;2024-03-08T02:25:55;0.60;99.90
46590;DHT22;32313;48.722;9.362;2024-03-08T02:28:22;0.60;99.90
46590;DHT22;32313;48.722;9.362;2024-03-08T02:30:51;0.60;99.90
46590;DHT22;32313;48.722;9.362;2024-03-08T02:33:20;0.70;99.90
46590;DHT22;32313;48.722;9.362;2024-03-08T02:35:46;0.60;99.90
46590;DHT22;32313;48.722;9.362;2024-03-08T02:38:16;0.70;99.90
46590;DHT22;32313;48.722;9.362;2024-03-08T02:40:43;0.60;99.90
46590;DHT22;32313;48.722;9.362;2024-03-08T02:43:12;0.50;99.90
46590;DHT22;32313;48.722;9.362;2024-03-08T02:45:38;0.40;99.90
46590;DHT22;32313;48.722;9.362;2024-03-08T02:48:04;0.30;99.90
46590;DHT22;32313;48.722;9.362;2024-03-08T02:50:32;0.20;99.90
46590;DHT22;32313;48.722;9.362;2024-03-08T02:52:58;0.30;99.90
46590;DHT22;32313;48.722;9.362;2024-03-08T02:55:24;0.30;99.90
46590;DHT22;32313;48.722;9.362;2024-03-08T02:57:52;0.30;99.90
46590;DHT22;32313;48.722;9.362;2024-03-08T03:00:18;0.40;99.90
46590;DHT22;32313;48.722;9.362;2024-03-08T03:02:45;0.50;99.90
46590;DHT22;32313;48.722;9.362;2024-03-08T03:05:11;0.60;99.90
46590;DHT22;32313;48.722;9.362;2024-03-08T03:07:37;0.60;99.90
46590;DHT22;32313;48.722;9.362;2024-03-08T03:10:03;0.50;99.90
46590;DHT22;32313;48.722;9.362;2024-03-08T03:12:29;0.50;99.90
46590;DHT22;32313;48.722;9.362;2024-03-08T03:14:58;0.40;99.90
46590;DHT22;32313;48.722;9.362;2024-03-08T03:17:24;0.40;99.90
46590;DHT22;32313;48.722;9.362;2024-03-08T03:19:51;0.50;99.90
46590;DHT22;32313;48.722;9.362;2024-03-08T03:22:20;0.40;99.90
46590;DHT22;32313;48.722;9.362;2024-03-08T03:24:46;0.40;99.90
46590;DHT22;32313;48.722;9.362;2024-03-08T03:27:12;0.40;99.90
46590;DHT22;32313;48.722;9.362;2024-03-08T03:29:42;0.30;99.90
46590;DHT22;32313;48.722;9.362;2024-03-08T03:32:14;0.40;99.90
46590;DHT22;32313;48.722;9.362;2024-03-08T03:34:41;0.30;99.90
46590;DHT22;32313;48.722;9.362;2024-03-08T03:37:07;0.30;99.90
46590;DHT22;32313;48.722;9.362;2024-03-08T03:39:40;0.20;99.90
46590;DHT22;32313;48.722;9.362;2024-03-08T03:42:15;0.20;99.90
46590;DHT22;32313;48.722;9.362;2024-03-08T03:44:45;0.30;99.90
46590;DHT22;32313;48.722;9.362;2024-03-08T03:47:11;0.30;99.90
46590;DHT22;32313;48.722;9.362;2024-03-08T03:49:37;0.20;99.90
46590;DHT22;32313;48.722;9.362;2024-03-08T03:52:02;0.40;99.90
46590;DHT22;32313;48.722;9.362;2024-03-08T03:54:30;0.30;99.90
46590;DHT22;32313;48.722;9.362;2024-03-08T03:56:56;0.30;99.90
46590;DHT22;32313;48.722;9.362;2024-03-08T03:59:21;0.30;99.90
46590;DHT22;32313;48.722;9.362;2024-03-08T04:01:47;0.30;99.90
46590;DHT22;32313;48.722;9.362;2024-03-08T04:04:15;0.30;99.90
46590;DHT22;32313;48.722;9.362;2024-03-08T04:06:41;0.20;99.90
46590;DHT22;32313;48.722;9.362;2024-03-08T04:09:07;0.20;99.90
46590;DHT22;32313;48.722;9.362;2024-03-08T04:11:33;0.20;99.90
46590;DHT22;32313;48.722;9.362;2024-03-08T04:13:59;0.20;99.90
46590;DHT22;32313;48.722;9.362;2024-03-08T04:16:24;0.10;99.90
46590;DHT22;32313;48.722;9.362;2024-03-08T04:18:51;0.20;99.90
46590;DHT22;32313;48.722;9.362;2024-03-08T04:21:17;0.20;99.90
46590;DHT22;32313;48.722;9.362;2024-03-08T04:23:44;0.30;99.90
46590;DHT22;32313;48.722;9.362;2024-03-08T04:26:11;0.30;99.90
46590;DHT22;32313;48.722;9.362;2024-03-08T04:28:37;0.20;99.90
46590;DHT22;32313;48.722;9.362;2024-03-08T04:31:03;0.20;99.90
46590;DHT22;32313;48.722;9.362;2024-03-08T04:33:29;0.20;99.90
46590;DHT22;32313;48.722;9.362;2024-03-08T04:35:55;0.20;99.90
46590;DHT22;32313;48.722;9.362;2024-03-08T04:38:21;0.20;99.90
46590;DHT22;32313;48.722;9.362;2024-03-08T04:40:47;0.10;99.90
46590;DHT22;32313;48.722;9.362;2024-03-08T04:43:12;0.00;99.90
46590;DHT22;32313;48.722;9.362;2024-03-08T04:45:39;0.00;99.90
46590;DHT22;32313;48.722;9.362;2024-03-08T04:48:06;-0.10;99.90
46590;DHT22;32313;48.722;9.362;2024-03-08T04:50:33;0.00;99.90
46590;DHT22;32313;48.722;9.362;2024-03-08T04:52:59;0.00;99.90
46590;DHT22;32313;48.722;9.362;2024-03-08T04:55:25;-0.10;99.90
46590;DHT22;32313;48.722;9.362;2024-03-08T04:57:50;-0.10;99.90
46590;DHT22;32313;48.722;9.362;2024-03-08T05:00:17;-0.10;99.90
46590;DHT22;32313;48.722;9.362;2024-03-08T05:02:42;-0.20;99.90
46590;DHT22;32313;48.722;9.362;2024-03-08T05:05:08;-0.30;99.90
46590;DHT22;32313;48.722;9.362;2024-03-08T05:07:38;-0.40;99.90
46590;DHT22;32313;48.722;9.362;2024-03-08T05:10:05;-0.40;99.90
46590;DHT22;32313;48.722;9.362;2024-03-08T05:12:32;-0.40;99.90
46590;DHT22;32313;48.722;9.362;2024-03-08T05:14:58;-0.30;99.90
46590;DHT22;32313;48.722;9.362;2024-03-08T05:17:24;-0.20;99.90
46590;DHT22;32313;48.722;9.362;2024-03-08T05:19:50;-0.30;99.90
46590;DHT22;32313;48.722;9.362;2024-03-08T05:22:16;-0.40;99.90
46590;DHT22;32313;48.722;9.362;2024-03-08T05:24:43;-0.60;99.90
46590;DHT22;32313;48.722;9.362;2024-03-08T05:27:09;-0.60;99.90
46590;DHT22;32313;48.722;9.362;2024-03-08T05:29:34;-0.70;99.90
46590;DHT22;32313;48.722;9.362;2024-03-08T05:32:00;-0.70;99.90
46590;DHT22;32313;48.722;9.362;2024-03-08T05:34:26;-0.60;99.90
46590;DHT22;32313;48.722;9.362;2024-03-08T05:36:54;-0.60;99.90
46590;DHT22;32313;48.722;9.362;2024-03-08T05:39:20;-0.60;99.90
46590;DHT22;32313;48.722;9.362;2024-03-08T05:41:46;-0.60;99.90
46590;DHT22;32313;48.722;9.362;2024-03-08T05:44:12;-0.60;99.90
46590;DHT22;32313;48.722;9.362;2024-03-08T05:46:39;-0.60;99.90
46590;DHT22;32313;48.722;9.362;2024-03-08T05:49:06;-0.50;99.90
46590;DHT22;32313;48.722;9.362;2024-03-08T05:51:32;-0.60;99.90
46590;DHT22;32313;48.722;9.362;2024-03-08T05:54:02;-0.50;99.90
46590;DHT22;32313;48.722;9.362;2024-03-08T05:56:36;-0.40;99.90
46590;DHT22;32313;48.722;9.362;2024-03-08T05:59:02;-0.40;99.90
46590;DHT22;32313;48.722;9.362;2024-03-08T06:01:28;-0.40;99.90
46590;DHT22;32313;48.722;9.362;2024-03-08T06:03:55;-0.50;99.90
46590;DHT22;32313;48.722;9.362;2024-03-08T06:06:22;-0.40;99.90
46590;DHT22;32313;48.722;9.362;2024-03-08T06:08:48;-0.50;99.90
46590;DHT22;32313;48.722;9.362;2024-03-08T06:11:18;-0.50;99.90
46590;DHT22;32313;48.722;9.362;2024-03-08T06:13:45;-0.40;99.90
46590;DHT22;32313;48.722;9.362;2024-03-08T06:16:11;-0.30;99.90
46590;DHT22;32313;48.722;9.362;2024-03-08T06:18:37;-0.20;99.90
46590;DHT22;32313;48.722;9.362;2024-03-08T06:21:03;-0.10;99.90
46590;DHT22;32313;48.722;9.362;2024-03-08T06:23:32;0.00;99.90
46590;DHT22;32313;48.722;9.362;2024-03-08T06:25:57;0.10;99.90
46590;DHT22;32313;48.722;9.362;2024-03-08T06:28:23;0.20;99.90
46590;DHT22;32313;48.722;9.362;2024-03-08T06:30:49;0.40;99.90
46590;DHT22;32313;48.722;9.362;2024-03-08T06:33:17;0.50;99.90
46590;DHT22;32313;48.722;9.362;2024-03-08T06:35:43;0.60;99.90
46590;DHT22;32313;48.722;9.362;2024-03-08T06:38:09;0.70;99.90
46590;DHT22;32313;48.722;9.362;2024-03-08T06:40:35;0.80;99.90
46590;DHT22;32313;48.722;9.362;2024-03-08T06:43:01;1.00;99.90
46590;DHT22;32313;48.722;9.362;2024-03-08T06:45:26;1.10;99.90
46590;DHT22;32313;48.722;9.362;2024-03-08T06:47:54;1.20;99.90
46590;DHT22;32313;48.722;9.362;2024-03-08T06:50:20;1.40;99.90
46590;DHT22;32313;48.722;9.362;2024-03-08T06:52:46;1.50;99.90
46590;DHT22;32313;48.722;9.362;2024-03-08T06:55:16;1.60;99.90
46590;DHT22;32313;48.722;9.362;2024-03-08T06:57:42;1.70;99.90
46590;DHT22;32313;48.722;9.362;2024-03-08T07:00:09;1.80;99.90
46590;DHT22;32313;48.722;9.362;2024-03-08T07:02:37;1.90;99.90
46590;DHT22;32313;48.722;9.362;2024-03-08T07:05:04;1.90;99.90
46590;DHT22;32313;48.722;9.362;2024-03-08T07:07:29;2.00;99.90
46590;DHT22;32313;48.722;9.362;2024-03-08T07:09:57;2.10;99.90
46590;DHT22;32313;48.722;9.362;2024-03-08T07:12:24;2.20;99.90
46590;DHT22;32313;48.722;9.362;2024-03-08T07:14:50;2.20;99.90
46590;DHT22;32313;48.722;9.362;2024-03-08T07:17:16;2.30;99.90
46590;DHT22;32313;48.722;9.362;2024-03-08T07:19:42;2.40;99.90
46590;DHT22;32313;48.722;9.362;2024-03-08T07:22:07;2.50;99.90
46590;DHT22;32313;48.722;9.362;2024-03-08T07:24:36;2.60;99.90
46590;DHT22;32313;48.722;9.362;2024-03-08T07:27:04;2.70;99.90
46590;DHT22;32313;48.722;9.362;2024-03-08T07:29:31;2.80;99.90
46590;DHT22;32313;48.722;9.362;2024-03-08T07:31:56;2.90;99.90
46590;DHT22;32313;48.722;9.362;2024-03-08T07:34:28;2.90;99.90
46590;DHT22;32313;48.722;9.362;2024-03-08T07:36:58;3.00;99.90
46590;DHT22;32313;48.722;9.362;2024-03-08T07:39:24;3.10;99.90
46590;DHT22;32313;48.722;9.362;2024-03-08T07:41:50;3.10;99.90
46590;DHT22;32313;48.722;9.362;2024-03-08T07:44:18;3.10;99.90
46590;DHT22;32313;48.722;9.362;2024-03-08T07:46:44;3.10;99.90
46590;DHT22;32313;48.722;9.362;2024-03-08T07:49:10;3.20;99.90
46590;DHT22;32313;48.722;9.362;2024-03-08T07:51:37;3.20;99.90
46590;DHT22;32313;48.722;9.362;2024-03-08T07:54:04;3.20;99.90
46590;DHT22;32313;48.722;9.362;2024-03-08T07:56:30;3.20;99.90
46590;DHT22;32313;48.722;9.362;2024-03-08T07:58:56;3.20;99.90
46590;DHT22;32313;48.722;9.362;2024-03-08T08:01:22;3.30;99.90
46590;DHT22;32313;48.722;9.362;2024-03-08T08:03:47;3.30;99.90
46590;DHT22;32313;48.722;9.362;2024-03-08T08:06:17;3.30;99.90
46590;DHT22;32313;48.722;9.362;2024-03-08T08:08:43;3.30;99.90
46590;DHT22;32313;48.722;9.362;2024-03-08T08:11:09;3.30;99.90
46590;DHT22;32313;48.722;9.362;2024-03-08T08:13:35;3.30;99.90
46590;DHT22;32313;48.722;9.362;2024-03-08T08:16:02;3.40;99.90
46590;DHT22;32313;48.722;9.362;2024-03-08T08:18:28;3.40;99.90
46590;DHT22;32313;48.722;9.362;2024-03-08T08:20:55;3.40;99.90
46590;DHT22;32313;48.722;9.362;2024-03-08T08:23:21;3.50;99.90
46590;DHT22;32313;48.722;9.362;2024-03-08T08:25:47;3.50;99.90
46590;DHT22;32313;48.722;9.362;2024-03-08T08:28:16;3.60;99.90
46590;DHT22;32313;48.722;9.362;2024-03-08T08:30:46;3.60;99.90
46590;DHT22;32313;48.722;9.362;2024-03-08T08:33:11;3.70;99.90
46590;DHT22;32313;48.722;9.362;2024-03-08T08:35:38;3.80;99.90
46590;DHT22;32313;48.722;9.362;2024-03-08T08:38:04;3.80;99.90
46590;DHT22;32313;48.722;9.362;2024-03-08T08:40:30;3.90;99.90
46590;DHT22;32313;48.722;9.362;2024-03-08T08:42:58;3.90;99.90
46590;DHT22;32313;48.722;9.362;2024-03-08T08:45:23;4.00;99.90
46590;DHT22;32313;48.722;9.362;2024-03-08T08:47:49;4.00;99.90
46590;DHT22;32313;48.722;9.362;2024-03-08T08:50:15;4.00;99.90
46590;DHT22;32313;48.722;9.362;2024-03-08T08:52:42;4.10;99.90
46590;DHT22;32313;48.722;9.362;2024-03-08T08:55:09;4.20;99.90
46590;DHT22;32313;48.722;9.362;2024-03-08T08:57:49;4.20;99.90
46590;DHT22;32313;48.722;9.362;2024-03-08T09:00:16;4.30;99.90
46590;DHT22;32313;48.722;9.362;2024-03-08T09:02:42;4.40;99.90
46590;DHT22;32313;48.722;9.362;2024-03-08T09:05:08;4.40;99.90
46590;DHT22;32313;48.722;9.362;2024-03-08T09:07:33;4.40;99.90
46590;DHT22;32313;48.722;9.362;2024-03-08T09:10:00;4.40;99.90
46590;DHT22;32313;48.722;9.362;2024-03-08T09:12:26;4.50;99.90
46590;DHT22;32313;48.722;9.362;2024-03-08T09:14:52;4.50;99.90
46590;DHT22;32313;48.722;9.362;2024-03-08T09:17:18;4.50;99.90
46590;DHT22;32313;48.722;9.362;2024-03-08T09:19:49;4.50;99.90
46590;DHT22;32313;48.722;9.362;2024-03-08T09:22:15;4.50;99.90
46590;DHT22;32313;48.722;9.362;2024-03-08T09:24:41;4.60;99.90
46590;DHT22;32313;48.722;9.362;2024-03-08T09:27:08;4.60;99.90
46590;DHT22;32313;48.722;9.362;2024-03-08T09:29:35;4.70;99.90
46590;DHT22;32313;48.722;9.362;2024-03-08T09:32:01;4.80;99.90
46590;DHT22;32313;48.722;9.362;2024-03-08T09:34:27;4.80;99.90
46590;DHT22;32313;48.722;9.362;2024-03-08T09:36:52;4.90;99.90
46590;DHT22;32313;48.722;9.362;2024-03-08T09:39:19;5.00;99.90
46590;DHT22;32313;48.722;9.362;2024-03-08T09:41:47;5.10;99.90
46590;DHT22;32313;48.722;9.362;2024-03-08T09:44:16;5.20;99.90
46590;DHT22;32313;48.722;9.362;2024-03-08T09:46:42;5.30;99.90
46590;DHT22;32313;48.722;9.362;2024-03-08T09:49:08;5.40;99.90
46590;DHT22;32313;48.722;9.362;2024-03-08T09:51:35;5.40;99.90
46590;DHT22;32313;48.722;9.362;2024-03-08T09:54:02;5.40;99.90
46590;DHT22;32313;48.722;9.362;2024-03-08T09:56:32;5.40;99.90
46590;DHT22;32313;48.722;9.362;2024-03-08T09:59:01;5.50;99.90
46590;DHT22;32313;48.722;9.362;2024-03-08T10:01:45;5.50;99.90
46590;DHT22;32313;48.722;9.362;2024-03-08T10:04:11;5.60;99.90
46590;DHT22;32313;48.722;9.362;2024-03-08T10:06:40;5.80;99.90
46590;DHT22;32313;48.722;9.362;2024-03-08T10:09:06;6.00;99.90
46590;DHT22;32313;48.722;9.362;2024-03-08T10:11:33;6.20;99.90
46590;DHT22;32313;48.722;9.362;2024-03-08T10:14:00;6.20;99.90
46590;DHT22;32313;48.722;9.362;2024-03-08T10:16:29;6.20;99.90
46590;DHT22;32313;48.722;9.362;2024-03-08T10:18:58;6.30;99.90
46590;DHT22;32313;48.722;9.362;2024-03-08T10:21:26;6.30;99.90
46590;DHT22;32313;48.722;9.362;2024-03-08T10:23:52;6.40;99.90
46590;DHT22;32313;48.722;9.362;2024-03-08T10:26:19;6.30;99.90
46590;DHT22;32313;48.722;9.362;2024-03-08T10:28:51;6.30;99.90
46590;DHT22;32313;48.722;9.362;2024-03-08T10:31:19;6.50;99.90
46590;DHT22;32313;48.722;9.362;2024-03-08T10:33:45;6.60;99.90
46590;DHT22;32313;48.722;9.362;2024-03-08T10:36:13;6.50;99.90
46590;DHT22;32313;48.722;9.362;2024-03-08T10:38:40;6.50;99.90
46590;DHT22;32313;48.722;9.362;2024-03-08T10:41:07;6.60;99.90
46590;DHT22;32313;48.722;9.362;2024-03-08T10:46:58;6.90;99.90
46590;DHT22;32313;48.722;9.362;2024-03-08T10:49:31;6.90;99.90
46590;DHT22;32313;48.722;9.362;2024-03-08T10:52:02;6.90;99.90
46590;DHT22;32313;48.722;9.362;2024-03-08T10:54:29;7.00;99.90
46590;DHT22;32313;48.722;9.362;2024-03-08T10:56:57;7.20;99.90
46590;DHT22;32313;48.722;9.362;2024-03-08T10:59:25;7.50;99.90
46590;DHT22;32313;48.722;9.362;2024-03-08T11:01:53;7.70;99.90
46590;DHT22;32313;48.722;9.362;2024-03-08T11:04:18;7.70;99.90
46590;DHT22;32313;48.722;9.362;2024-03-08T11:06:49;7.80;99.90
46590;DHT22;32313;48.722;9.362;2024-03-08T11:09:28;8.40;99.90
46590;DHT22;32313;48.722;9.362;2024-03-08T11:14:50;8.20;99.90
46590;DHT22;32313;48.722;9.362;2024-03-08T11:17:26;8.50;99.90
46590;DHT22;32313;48.722;9.362;2024-03-08T11:19:55;9.50;99.90
46590;DHT22;32313;48.722;9.362;2024-03-08T11:22:48;9.90;99.90
46590;DHT22;32313;48.722;9.362;2024-03-08T11:25:35;10.90;99.90
46590;DHT22;32313;48.722;9.362;2024-03-08T11:30:45;10.60;99.90
46590;DHT22;32313;48.722;9.362;2024-03-08T11:33:15;11.20;99.90
46590;DHT22;32313;48.722;9.362;2024-03-08T11:35:42;12.40;99.90
46590;DHT22;32313;48.722;9.362;2024-03-08T11:38:11;12.80;99.90
46590;DHT22;32313;48.722;9.362;2024-03-08T11:40:39;12.50;99.90
46590;DHT22;32313;48.722;9.362;2024-03-08T11:43:05;12.00;99.90
46590;DHT22;32313;48.722;9.362;2024-03-08T11:45:36;12.50;99.90
46590;DHT22;32313;48.722;9.362;2024-03-08T11:48:03;12.90;99.90
46590;DHT22;32313;48.722;9.362;2024-03-08T11:50:29;13.00;99.90
46590;DHT22;32313;48.722;9.362;2024-03-08T11:53:01;12.20;99.90
46590;DHT22;32313;48.722;9.362;2024-03-08T11:55:28;12.60;99.90
46590;DHT22;32313;48.722;9.362;2024-03-08T11:58:04;13.00;99.90
46590;DHT22;32313;48.722;9.362;2024-03-08T12:00:34;13.20;99.90
46590;DHT22;32313;48.722;9.362;2024-03-08T12:03:08;13.70;99.90
46590;DHT22;32313;48.722;9.362;2024-03-08T12:05:35;13.50;99.90
46590;DHT22;32313;48.722;9.362;2024-03-08T12:08:04;13.40;99.90
46590;DHT22;32313;48.722;9.362;2024-03-08T12:10:33;13.20;99.90
46590;DHT22;32313;48.722;9.362;2024-03-08T12:13:00;13.40;99.90
46590;DHT22;32313;48.722;9.362;2024-03-08T12:15:26;13.80;99.90
46590;DHT22;32313;48.722;9.362;2024-03-08T12:17:54;13.80;99.90
46590;DHT22;32313;48.722;9.362;2024-03-08T12:20:26;14.30;99.90
46590;DHT22;32313;48.722;9.362;2024-03-08T12:22:54;14.90;99.90
46590;DHT22;32313;48.722;9.362;2024-03-08T12:25:26;14.60;99.90
46590;DHT22;32313;48.722;9.362;2024-03-08T12:27:52;14.70;99.90
46590;DHT22;32313;48.722;9.362;2024-03-08T12:30:23;14.50;99.90
46590;DHT22;32313;48.722;9.362;2024-03-08T12:33:00;14.30;99.90
46590;DHT22;32313;48.722;9.362;2024-03-08T12:35:30;14.20;99.90
46590;DHT22;32313;48.722;9.362;2024-03-08T12:37:57;14.60;99.90
46590;DHT22;32313;48.722;9.362;2024-03-08T12:40:30;14.70;99.90
46590;DHT22;32313;48.722;9.362;2024-03-08T12:43:00;15.00;99.90
46590;DHT22;32313;48.722;9.362;2024-03-08T12:45:27;15.10;99.90
46590;DHT22;32313;48.722;9.362;2024-03-08T12:47:53;15.20;99.90
46590;DHT22;32313;48.722;9.362;2024-03-08T12:50:21;15.20;99.90
46590;DHT22;32313;48.722;9.362;2024-03-08T12:52:47;15.50;99.90
46590;DHT22;32313;48.722;9.362;2024-03-08T12:55:17;15.40;99.90
46590;DHT22;32313;48.722;9.362;2024-03-08T12:57:43;15.60;99.90
46590;DHT22;32313;48.722;9.362;2024-03-08T13:00:10;15.40;98.80
46590;DHT22;32313;48.722;9.362;2024-03-08T13:02:41;14.80;97.90
46590;DHT22;32313;48.722;9.362;2024-03-08T13:05:07;14.50;99.90
46590;DHT22;32313;48.722;9.362;2024-03-08T13:07:35;14.10;99.80
46590;DHT22;32313;48.722;9.362;2024-03-08T13:10:01;14.40;99.10
46590;DHT22;32313;48.722;9.362;2024-03-08T13:12:26;14.50;99.60
46590;DHT22;32313;48.722;9.362;2024-03-08T13:14:53;14.90;98.70
46590;DHT22;32313;48.722;9.362;2024-03-08T13:17:22;14.80;98.90
46590;DHT22;32313;48.722;9.362;2024-03-08T13:19:48;15.00;99.30
46590;DHT22;32313;48.722;9.362;2024-03-08T13:22:14;15.40;97.40
46590;DHT22;32313;48.722;9.362;2024-03-08T13:24:42;15.40;97.30
46590;DHT22;32313;48.722;9.362;2024-03-08T13:27:11;14.90;97.30
46590;DHT22;32313;48.722;9.362;2024-03-08T13:29:46;14.60;96.50
46590;DHT22;32313;48.722;9.362;2024-03-08T13:32:13;14.60;97.60
46590;DHT22;32313;48.722;9.362;2024-03-08T13:34:43;15.10;97.50
46590;DHT22;32313;48.722;9.362;2024-03-08T13:37:09;15.50;97.40
46590;DHT22;32313;48.722;9.362;2024-03-08T13:39:36;15.80;96.70
46590;DHT22;32313;48.722;9.362;2024-03-08T13:42:13;15.60;96.50
46590;DHT22;32313;48.722;9.362;2024-03-08T13:44:43;15.50;96.50
46590;DHT22;32313;48.722;9.362;2024-03-08T13:47:09;15.70;97.10
46590;DHT22;32313;48.722;9.362;2024-03-08T13:49:37;15.70;95.80
46590;DHT22;32313;48.722;9.362;2024-03-08T13:52:03;15.70;95.20
46590;DHT22;32313;48.722;9.362;2024-03-08T13:54:30;15.60;95.60
46590;DHT22;32313;48.722;9.362;2024-03-08T13:56:58;15.70;94.40
46590;DHT22;32313;48.722;9.362;2024-03-08T13:59:24;15.60;95.30
46590;DHT22;32313;48.722;9.362;2024-03-08T14:01:50;15.80;95.30
46590;DHT22;32313;48.722;9.362;2024-03-08T14:04:16;16.00;95.20
46590;DHT22;32313;48.722;9.362;2024-03-08T14:06:43;16.20;94.70
46590;DHT22;32313;48.722;9.362;2024-03-08T14:09:12;16.20;94.80
46590;DHT22;32313;48.722;9.362;2024-03-08T14:11:43;15.90;93.90
46590;DHT22;32313;48.722;9.362;2024-03-08T14:14:12;15.90;94.80
46590;DHT22;32313;48.722;9.362;2024-03-08T14:16:39;16.10;94.70
46590;DHT22;32313;48.722;9.362;2024-03-08T14:19:05;16.30;94.40
46590;DHT22;32313;48.722;9.362;2024-03-08T14:21:34;16.20;93.90
46590;DHT22;32313;48.722;9.362;2024-03-08T14:24:00;15.70;93.60
46590;DHT22;32313;48.722;9.362;2024-03-08T14:26:26;15.40;94.30
46590;DHT22;32313;48.722;9.362;2024-03-08T14:28:53;15.40;93.60
46590;DHT22;32313;48.722;9.362;2024-03-08T14:31:22;15.20;94.10
46590;DHT22;32313;48.722;9.362;2024-03-08T14:33:54;15.30;93.90
46590;DHT22;32313;48.722;9.362;2024-03-08T14:36:20;15.60;94.00
46590;DHT22;32313;48.722;9.362;2024-03-08T14:38:47;15.70;94.50
46590;DHT22;32313;48.722;9.362;2024-03-08T14:41:13;15.90;94.00
46590;DHT22;32313;48.722;9.362;2024-03-08T14:43:45;16.20;93.50
46590;DHT22;32313;48.722;9.362;2024-03-08T14:46:14;16.50;93.80
46590;DHT22;32313;48.722;9.362;2024-03-08T14:48:43;16.50;91.60
46590;DHT22;32313;48.722;9.362;2024-03-08T14:51:10;16.00;92.60
46590;DHT22;32313;48.722;9.362;2024-03-08T14:53:37;15.60;92.30
46590;DHT22;32313;48.722;9.362;2024-03-08T14:56:09;15.40;93.20
46590;DHT22;32313;48.722;9.362;2024-03-08T14:58:35;15.60;93.40
46590;DHT22;32313;48.722;9.362;2024-03-08T15:01:01;15.40;93.80
46590;DHT22;32313;48.722;9.362;2024-03-08T15:03:29;14.80;94.10
46590;DHT22;32313;48.722;9.362;2024-03-08T15:05:55;13.90;94.70
46590;DHT22;32313;48.722;9.362;2024-03-08T15:08:21;13.40;96.20
46590;DHT22;32313;48.722;9.362;2024-03-08T15:10:49;12.90;97.10
46590;DHT22;32313;48.722;9.362;2024-03-08T15:13:24;12.40;97.20
46590;DHT22;32313;48.722;9.362;2024-03-08T15:15:53;12.10;97.60
46590;DHT22;32313;48.722;9.362;2024-03-08T15:18:23;12.00;98.00
46590;DHT22;32313;48.722;9.362;2024-03-08T15:20:52;12.20;98.50
46590;DHT22;32313;48.722;9.362;2024-03-08T15:23:18;12.50;98.10
46590;DHT22;32313;48.722;9.362;2024-03-08T15:25:46;13.00;96.90
46590;DHT22;32313;48.722;9.362;2024-03-08T15:28:15;13.30;96.80
46590;DHT22;32313;48.722;9.362;2024-03-08T15:30:45;13.60;96.40
46590;DHT22;32313;48.722;9.362;2024-03-08T15:33:13;13.80;96.30
46590;DHT22;32313;48.722;9.362;2024-03-08T15:35:41;14.00;95.90
46590;DHT22;32313;48.722;9.362;2024-03-08T15:38:07;14.00;95.00
46590;DHT22;32313;48.722;9.362;2024-03-08T15:40:34;14.10;95.00
46590;DHT22;32313;48.722;9.362;2024-03-08T15:43:00;14.10;95.40
46590;DHT22;32313;48.722;9.362;2024-03-08T15:45:26;14.20;95.00
46590;DHT22;32313;48.722;9.362;2024-03-08T15:47:53;14.20;95.40
46590;DHT22;32313;48.722;9.362;2024-03-08T15:50:19;14.30;95.50